createdAt,value
2019-05-26T00:00:55.737Z,83.70
2019-05-26T00:03:26.793Z,83.10
2019-05-26T00:05:58.652Z,82.00
2019-05-26T00:08:29.819Z,81.50
2019-05-26T00:11:01.469Z,80.50
2019-05-26T00:13:32.912Z,79.30
2019-05-26T00:16:04.310Z,79.30
2019-05-26T00:18:36.117Z,77.20
2019-05-26T00:21:07.478Z,76.40
2019-05-26T00:23:38.536Z,75.80
2019-05-26T00:26:09.406Z,75.40
2019-05-26T00:28:41.107Z,74.40
2019-05-26T00:31:12.562Z,73.20
2019-05-26T00:33:44.052Z,71.60
2019-05-26T00:36:15.761Z,71.00
2019-05-26T00:38:47.515Z,68.60
2019-05-26T00:41:18.739Z,68.90
2019-05-26T00:43:49.659Z,69.90
2019-05-26T00:46:21.469Z,68.60
2019-05-26T00:48:51.474Z,68.10
2019-05-26T00:51:23.144Z,67.00
2019-05-26T00:53:54.204Z,67.40
2019-05-26T00:56:25.738Z,67.00
2019-05-26T00:58:57.613Z,65.30
2019-05-26T01:01:27.647Z,64.40
2019-05-26T01:03:58.680Z,64.10
2019-05-26T01:06:29.820Z,64.90
2019-05-26T01:09:01.317Z,62.60
2019-05-26T01:11:32.500Z,62.00
2019-05-26T01:14:04.062Z,63.80
2019-05-26T01:16:35.925Z,61.90
2019-05-26T01:19:07.370Z,62.60
2019-05-26T01:21:38.603Z,61.20
2019-05-26T01:24:09.740Z,60.10
2019-05-26T01:26:41.332Z,59.50
2019-05-26T01:29:11.466Z,58.20
2019-05-26T01:31:42.437Z,56.90
2019-05-26T01:34:13.304Z,59.30
2019-05-26T01:36:44.579Z,57.50
2019-05-26T01:39:15.711Z,58.80
2019-05-26T01:41:46.828Z,57.70
2019-05-26T01:44:18.517Z,55.50
2019-05-26T01:46:50.169Z,55.80
2019-05-26T01:49:21.735Z,56.20
2019-05-26T01:51:51.765Z,57.00
2019-05-26T01:54:22.615Z,53.50
2019-05-26T01:56:53.622Z,55.50
2019-05-26T01:59:25.176Z,54.30
2019-05-26T02:01:58.512Z,55.40
2019-05-26T02:04:27.872Z,54.70
2019-05-26T02:06:59.647Z,55.40
2019-05-26T02:09:30.672Z,55.90
2019-05-26T02:12:01.837Z,54.20
2019-05-26T02:14:33.493Z,53.00
2019-05-26T02:17:04.555Z,53.50
2019-05-26T02:19:35.803Z,54.60
2019-05-26T02:22:07.944Z,52.40
2019-05-26T02:24:39.591Z,53.80
2019-05-26T02:27:11.215Z,53.80
2019-05-26T02:29:42.063Z,53.20
2019-05-26T02:32:13.857Z,53.90
2019-05-26T02:34:45.183Z,52.90
2019-05-26T02:37:16.776Z,52.60
2019-05-26T02:39:48.528Z,53.20
2019-05-26T02:42:19.826Z,53.30
2019-05-26T02:44:50.977Z,53.40
2019-05-26T02:47:21.835Z,52.30
2019-05-26T02:49:52.959Z,52.80
2019-05-26T02:52:26.194Z,54.10
2019-05-26T02:54:57.418Z,53.70
2019-05-26T02:57:28.647Z,53.80
2019-05-26T03:00:00.144Z,53.20
2019-05-26T03:02:31.513Z,51.50
2019-05-26T03:05:01.583Z,51.50
2019-05-26T03:07:34.603Z,49.60
2019-05-26T03:10:07.078Z,52.10
2019-05-26T03:12:40.238Z,52.20
2019-05-26T03:15:12.951Z,51.20
2019-05-26T03:17:44.059Z,50.20
2019-05-26T03:20:16.922Z,51.80
2019-05-26T03:22:50.576Z,50.50
2019-05-26T03:25:22.139Z,50.10
2019-05-26T03:27:53.600Z,52.00
2019-05-26T03:30:24.624Z,51.00
2019-05-26T03:32:55.940Z,50.90
2019-05-26T03:35:26.027Z,51.40
2019-05-26T03:37:57.267Z,48.70
2019-05-26T03:40:29.925Z,50.90
2019-05-26T03:43:01.133Z,50.80
2019-05-26T03:45:34.601Z,50.40
2019-05-26T03:48:06.331Z,50.00
2019-05-26T03:50:37.481Z,48.10
2019-05-26T03:53:09.558Z,48.60
2019-05-26T03:55:41.311Z,49.30
2019-05-26T03:58:45.479Z,51.60
2019-05-26T04:01:17.187Z,51.90
2019-05-26T04:03:48.645Z,53.10
2019-05-26T04:06:18.672Z,54.20
2019-05-26T04:08:49.732Z,51.60
2019-05-26T04:11:21.446Z,54.00
2019-05-26T04:13:52.900Z,53.70
2019-05-26T04:16:23.053Z,54.50
2019-05-26T04:18:54.393Z,54.40
2019-05-26T04:21:25.930Z,56.90
2019-05-26T04:23:55.626Z,56.40
2019-05-26T04:26:27.161Z,57.20
2019-05-26T04:28:57.233Z,58.40
2019-05-26T04:31:28.479Z,57.10
2019-05-26T04:34:00.137Z,58.10
2019-05-26T04:36:31.280Z,58.90
2019-05-26T04:39:03.042Z,59.80
2019-05-26T04:41:34.804Z,58.90
2019-05-26T04:44:06.449Z,59.60
2019-05-26T04:46:38.015Z,57.70
2019-05-26T04:49:08.240Z,58.00
2019-05-26T04:51:40.094Z,56.90
2019-05-26T04:54:11.853Z,57.50
2019-05-26T04:56:43.512Z,58.50
2019-05-26T04:59:14.705Z,58.90
2019-05-26T05:01:45.959Z,57.00
2019-05-26T05:04:17.394Z,56.70
2019-05-26T05:06:48.999Z,56.70
2019-05-26T05:09:19.011Z,57.70
2019-05-26T05:11:50.779Z,57.80
2019-05-26T05:14:22.239Z,58.10
2019-05-26T05:16:52.377Z,58.00
2019-05-26T05:19:24.215Z,56.40
2019-05-26T05:21:55.669Z,57.70
2019-05-26T05:24:25.805Z,57.40
2019-05-26T05:26:57.193Z,54.10
2019-05-26T05:29:28.691Z,54.90
2019-05-26T05:31:58.706Z,56.30
2019-05-26T05:34:30.057Z,54.20
2019-05-26T05:37:01.980Z,56.50
2019-05-26T05:39:33.681Z,57.60
2019-05-26T05:42:05.396Z,54.80
2019-05-26T05:44:36.640Z,57.10
2019-05-26T05:47:08.398Z,57.70
2019-05-26T05:49:39.996Z,58.30
2019-05-26T05:52:11.216Z,59.80
2019-05-26T05:54:42.440Z,59.40
2019-05-26T05:57:14.052Z,58.10
2019-05-26T05:59:44.191Z,57.20
2019-05-26T06:02:15.266Z,58.30
2019-05-26T06:04:46.959Z,58.30
2019-05-26T06:07:18.642Z,59.00
2019-05-26T06:09:50.082Z,59.00
2019-05-26T06:12:22.164Z,58.90
2019-05-26T06:14:53.543Z,58.50
2019-05-26T06:17:25.166Z,58.40
2019-05-26T06:19:56.818Z,57.10
2019-05-26T06:22:28.674Z,57.50
2019-05-26T06:25:01.133Z,56.70
2019-05-26T06:27:32.319Z,56.90
2019-05-26T06:30:03.853Z,56.60
2019-05-26T06:32:35.710Z,56.80
2019-05-26T06:35:07.781Z,57.60
2019-05-26T06:37:39.490Z,57.70
2019-05-26T06:40:11.620Z,58.60
2019-05-26T06:42:43.061Z,58.00
2019-05-26T06:45:13.513Z,58.20
2019-05-26T06:47:44.768Z,58.10
2019-05-26T06:50:17.014Z,58.40
2019-05-26T06:52:48.877Z,58.50
2019-05-26T06:55:20.830Z,58.70
2019-05-26T06:57:52.600Z,58.90
2019-05-26T07:00:24.460Z,59.40
2019-05-26T07:02:55.684Z,58.70
2019-05-26T07:05:27.254Z,59.00
2019-05-26T07:07:57.399Z,57.90
2019-05-26T07:10:28.450Z,57.90
2019-05-26T07:12:59.591Z,58.90
2019-05-26T07:15:30.727Z,59.10
2019-05-26T07:18:02.355Z,59.00
2019-05-26T07:20:33.824Z,59.30
2019-05-26T07:23:06.874Z,59.10
2019-05-26T07:25:38.032Z,59.10
2019-05-26T07:28:08.193Z,59.30
2019-05-26T07:30:39.935Z,58.60
2019-05-26T07:33:11.313Z,59.10
2019-05-26T07:35:42.971Z,59.20
2019-05-26T07:38:12.972Z,59.30
2019-05-26T07:40:44.005Z,58.10
2019-05-26T07:43:15.659Z,59.00
2019-05-26T07:45:45.808Z,58.80
2019-05-26T07:48:17.741Z,58.00
2019-05-26T07:50:48.982Z,58.90
2019-05-26T07:53:20.543Z,59.30
2019-05-26T07:55:51.899Z,59.00
2019-05-26T07:58:23.310Z,59.30
2019-05-26T08:00:54.916Z,59.00
2019-05-26T08:03:25.043Z,59.60
2019-05-26T08:05:56.095Z,57.60
2019-05-26T08:08:28.194Z,59.00
2019-05-26T08:10:59.423Z,59.60
2019-05-26T08:13:30.477Z,59.70
2019-05-26T08:16:01.631Z,59.90
2019-05-26T08:18:33.241Z,59.80
2019-05-26T08:21:03.369Z,59.20
2019-05-26T08:23:35.112Z,58.80
2019-05-26T08:26:06.677Z,59.50
2019-05-26T08:28:36.788Z,59.40
2019-05-26T08:31:08.341Z,58.70
2019-05-26T08:33:38.465Z,59.40
2019-05-26T08:36:10.021Z,57.90
2019-05-26T08:38:40.261Z,58.80
2019-05-26T08:41:11.993Z,57.10
2019-05-26T08:43:43.910Z,58.10
2019-05-26T08:46:15.520Z,57.90
2019-05-26T08:48:45.712Z,56.50
2019-05-26T08:51:17.049Z,55.40
2019-05-26T08:53:48.221Z,57.30
2019-05-26T08:56:19.593Z,57.80
2019-05-26T08:58:51.331Z,58.00
2019-05-26T09:01:22.987Z,57.90
2019-05-26T09:03:54.818Z,58.10
2019-05-26T09:06:26.619Z,58.20
2019-05-26T09:08:58.083Z,58.10
2019-05-26T09:11:29.163Z,58.40
2019-05-26T09:14:00.987Z,57.70
2019-05-26T09:16:32.178Z,58.00
2019-05-26T09:19:03.769Z,58.40
2019-05-26T09:21:33.931Z,58.50
2019-05-26T09:24:04.996Z,58.30
2019-05-26T09:26:36.739Z,59.20
2019-05-26T09:29:07.971Z,59.20
2019-05-26T09:31:39.006Z,58.80
2019-05-26T09:34:10.868Z,59.00
2019-05-26T09:36:42.106Z,59.20
2019-05-26T09:39:13.198Z,59.40
2019-05-26T09:41:44.223Z,59.20
2019-05-26T09:44:15.430Z,59.60
2019-05-26T09:46:47.094Z,59.60
2019-05-26T09:49:17.132Z,59.80
2019-05-26T09:51:48.166Z,59.70
2019-05-26T09:54:19.805Z,60.00
2019-05-26T09:56:49.963Z,60.00
2019-05-26T09:59:20.996Z,59.80
2019-05-26T10:01:52.640Z,60.10
2019-05-26T10:04:22.875Z,60.50
2019-05-26T10:06:54.312Z,60.90
2019-05-26T10:09:26.170Z,61.10
2019-05-26T10:11:57.880Z,61.60
2019-05-26T10:14:28.087Z,61.90
2019-05-26T10:16:59.607Z,62.20
2019-05-26T10:19:31.263Z,62.10
2019-05-26T10:22:01.391Z,62.30
2019-05-26T10:24:32.848Z,63.30
2019-05-26T10:27:04.387Z,63.00
2019-05-26T10:29:36.202Z,62.90
2019-05-26T10:32:06.696Z,63.30
2019-05-26T10:34:38.453Z,63.30
2019-05-26T10:37:09.996Z,64.10
2019-05-26T10:39:44.850Z,64.50
2019-05-26T10:42:14.460Z,64.50
2019-05-26T10:44:45.898Z,65.10
2019-05-26T10:47:17.046Z,65.90
2019-05-26T10:49:48.179Z,66.90
2019-05-26T10:52:19.928Z,67.30
2019-05-26T10:54:51.695Z,68.40
2019-05-26T10:57:23.415Z,68.30
2019-05-26T10:59:54.674Z,68.50
2019-05-26T11:02:25.828Z,69.60
2019-05-26T11:04:57.387Z,68.60
2019-05-26T11:07:29.226Z,70.60
2019-05-26T11:10:01.028Z,68.00
2019-05-26T11:12:32.783Z,67.90
2019-05-26T11:15:04.227Z,69.80
2019-05-26T11:17:35.993Z,70.60
2019-05-26T11:20:08.894Z,72.00
2019-05-26T11:22:40.645Z,74.10
2019-05-26T11:25:12.513Z,73.60
2019-05-26T11:27:44.262Z,72.70
2019-05-26T11:30:17.777Z,74.00
2019-05-26T11:32:49.517Z,72.00
2019-05-26T11:35:20.879Z,70.30
2019-05-26T11:37:52.525Z,72.00
2019-05-26T11:40:24.279Z,72.50
2019-05-26T11:42:56.049Z,72.40
2019-05-26T11:45:27.551Z,72.70
2019-05-26T11:47:58.696Z,72.50
2019-05-26T11:50:30.302Z,72.90
2019-05-26T11:53:02.113Z,72.90
2019-05-26T11:55:33.611Z,73.80
2019-05-26T11:58:05.050Z,75.00
2019-05-26T12:00:36.746Z,77.30
2019-05-26T12:03:08.063Z,77.30
2019-05-26T12:05:39.180Z,75.80
2019-05-26T12:08:10.789Z,76.70
2019-05-26T12:10:42.024Z,75.20
2019-05-26T12:13:13.489Z,74.10
2019-05-26T12:15:46.087Z,73.90
2019-05-26T12:18:17.821Z,73.60
2019-05-26T12:20:49.084Z,75.40
2019-05-26T12:23:20.354Z,75.70
2019-05-26T12:25:51.408Z,74.50
2019-05-26T12:28:23.012Z,73.10
2019-05-26T12:30:54.615Z,71.80
2019-05-26T12:33:26.241Z,72.00
2019-05-26T12:35:57.828Z,71.70
2019-05-26T12:38:29.480Z,72.60
2019-05-26T12:41:01.301Z,73.60
2019-05-26T12:43:32.954Z,73.40
2019-05-26T12:46:04.504Z,72.80
2019-05-26T12:48:35.862Z,73.00
2019-05-26T12:51:07.461Z,73.50
2019-05-26T12:53:38.923Z,73.30
2019-05-26T12:56:11.444Z,74.80
2019-05-26T12:58:42.889Z,75.20
2019-05-26T13:01:14.757Z,75.10
2019-05-26T13:03:46.259Z,75.80
2019-05-26T13:06:17.972Z,75.90
2019-05-26T13:08:49.721Z,75.90
2019-05-26T13:11:22.778Z,75.50
2019-05-26T13:13:54.173Z,75.10
2019-05-26T13:16:25.475Z,75.80
2019-05-26T13:18:56.884Z,74.90
2019-05-26T13:21:28.218Z,74.20
2019-05-26T13:23:59.481Z,74.30
2019-05-26T13:26:31.019Z,74.10
2019-05-26T13:29:03.176Z,74.20
2019-05-26T13:31:34.641Z,74.40
2019-05-26T13:34:05.863Z,74.40
2019-05-26T13:36:37.072Z,74.30
2019-05-26T13:39:10.430Z,74.20
2019-05-26T13:41:42.175Z,74.50
2019-05-26T13:44:13.744Z,74.60
2019-05-26T13:46:45.191Z,75.30
2019-05-26T13:49:16.433Z,75.20
2019-05-26T13:51:50.397Z,74.80
2019-05-26T13:54:20.984Z,74.90
2019-05-26T13:56:52.539Z,74.90
2019-05-26T13:59:24.289Z,75.00
2019-05-26T14:01:55.726Z,74.90
2019-05-26T14:04:27.397Z,76.50
2019-05-26T14:06:58.760Z,76.50
2019-05-26T14:09:30.124Z,77.50
2019-05-26T14:12:01.566Z,76.30
2019-05-26T14:14:32.591Z,75.90
2019-05-26T14:17:05.283Z,76.40
2019-05-26T14:19:38.669Z,75.60
2019-05-26T14:22:10.133Z,75.40
2019-05-26T14:24:53.227Z,75.50
2019-05-26T14:27:14.887Z,75.90
2019-05-26T14:29:46.539Z,76.20
2019-05-26T14:32:18.296Z,76.70
2019-05-26T14:34:49.844Z,76.50
2019-05-26T14:37:21.088Z,76.30
2019-05-26T14:39:53.055Z,77.80
2019-05-26T14:42:23.108Z,79.10
2019-05-26T14:44:54.162Z,81.00
2019-05-26T14:47:25.424Z,80.30
2019-05-26T14:49:56.937Z,78.40
2019-05-26T14:52:28.372Z,78.20
2019-05-26T14:55:00.243Z,80.00
2019-05-26T14:57:31.991Z,79.20
2019-05-26T15:00:03.460Z,78.40
2019-05-26T15:02:35.121Z,80.10
2019-05-26T15:05:07.732Z,79.20
2019-05-26T15:07:38.794Z,78.40
2019-05-26T15:10:11.611Z,77.80
2019-05-26T15:12:43.485Z,77.60
2019-05-26T15:15:15.322Z,79.70
2019-05-26T15:17:46.454Z,80.70
2019-05-26T15:20:18.458Z,79.90
2019-05-26T15:22:48.515Z,81.10
2019-05-26T15:25:19.851Z,82.50
2019-05-26T15:27:51.485Z,82.30
2019-05-26T15:30:23.236Z,81.50
2019-05-26T15:32:54.695Z,81.50
2019-05-26T15:35:25.957Z,81.40
2019-05-26T15:37:57.599Z,81.40
2019-05-26T15:40:29.037Z,81.30
2019-05-26T15:43:00.914Z,81.80
2019-05-26T15:45:32.412Z,80.10
2019-05-26T15:48:04.019Z,79.80
2019-05-26T15:50:35.881Z,81.60
2019-05-26T15:53:07.330Z,81.50
2019-05-26T15:55:40.089Z,81.70
2019-05-26T15:58:11.979Z,81.60
2019-05-26T16:00:43.239Z,80.30
2019-05-26T16:03:14.685Z,80.00
2019-05-26T16:05:45.992Z,80.00
2019-05-26T16:08:17.779Z,79.40
2019-05-26T16:10:49.642Z,77.90
2019-05-26T16:13:21.353Z,78.20
2019-05-26T16:15:53.166Z,78.90
2019-05-26T16:18:24.317Z,79.10
2019-05-26T16:21:03.014Z,79.00
2019-05-26T16:23:28.633Z,79.00
2019-05-26T16:26:00.118Z,78.90
2019-05-26T16:28:31.379Z,79.40
2019-05-26T16:31:02.583Z,80.30
2019-05-26T16:33:33.940Z,80.10
2019-05-26T16:36:05.221Z,81.10
2019-05-26T16:38:36.845Z,81.50
2019-05-26T16:41:08.294Z,80.60
2019-05-26T16:43:40.054Z,81.40
2019-05-26T16:46:11.772Z,82.40
2019-05-26T16:48:43.061Z,82.00
2019-05-26T16:51:14.165Z,82.50
2019-05-26T16:53:45.320Z,83.20
2019-05-26T16:56:17.016Z,82.60
2019-05-26T16:58:48.470Z,81.30
2019-05-26T17:01:20.223Z,81.00
2019-05-26T17:03:51.661Z,81.20
2019-05-26T17:06:22.879Z,82.40
2019-05-26T17:08:54.282Z,81.80
2019-05-26T17:11:25.775Z,81.80
2019-05-26T17:13:57.384Z,82.80
2019-05-26T17:16:29.028Z,83.30
2019-05-26T17:19:00.696Z,85.20
2019-05-26T17:21:32.451Z,85.80
2019-05-26T17:24:04.179Z,85.70
2019-05-26T17:26:35.970Z,84.40
2019-05-26T17:29:08.033Z,84.40
2019-05-26T17:31:38.073Z,84.60
2019-05-26T17:34:09.607Z,85.20
2019-05-26T17:36:40.966Z,84.20
2019-05-26T17:39:12.210Z,85.30
2019-05-26T17:41:43.472Z,84.40
2019-05-26T17:44:15.203Z,83.70
2019-05-26T17:46:46.427Z,83.00
2019-05-26T17:49:17.811Z,83.10
2019-05-26T17:51:49.286Z,83.60
2019-05-26T17:54:21.013Z,83.20
2019-05-26T17:56:52.486Z,83.70
2019-05-26T17:59:24.131Z,84.10
2019-05-26T18:01:55.702Z,83.40
2019-05-26T18:04:27.126Z,84.30
2019-05-26T18:06:58.395Z,84.10
2019-05-26T18:09:43.227Z,83.90
2019-05-26T18:12:01.869Z,84.60
2019-05-26T18:14:33.471Z,86.60
2019-05-26T18:17:05.216Z,87.20
2019-05-26T18:19:37.033Z,88.50
2019-05-26T18:22:08.327Z,88.00
2019-05-26T18:24:39.897Z,87.20
2019-05-26T18:27:11.747Z,87.20
2019-05-26T18:29:44.916Z,87.80
2019-05-26T18:32:16.864Z,87.40
2019-05-26T18:34:48.509Z,86.80
2019-05-26T18:37:20.316Z,86.80
2019-05-26T18:39:51.926Z,88.20
2019-05-26T18:42:23.834Z,88.90
2019-05-26T18:44:55.061Z,87.80
2019-05-26T18:47:26.639Z,87.60
2019-05-26T18:49:58.187Z,86.90
2019-05-26T18:52:29.419Z,86.40
2019-05-26T18:55:00.860Z,88.20
2019-05-26T18:57:32.456Z,88.30
2019-05-26T19:00:03.913Z,88.10
2019-05-26T19:02:35.210Z,88.50
2019-05-26T19:05:07.837Z,88.30
2019-05-26T19:07:39.287Z,87.80
2019-05-26T19:10:11.646Z,87.40
2019-05-26T19:12:43.102Z,88.20
2019-05-26T19:15:15.984Z,88.20
2019-05-26T19:17:47.846Z,88.10
2019-05-26T19:20:20.032Z,88.20
2019-05-26T19:22:53.386Z,88.00
2019-05-26T19:25:24.355Z,88.40
2019-05-26T19:27:56.125Z,87.30
2019-05-26T19:30:27.571Z,87.00
2019-05-26T19:32:59.335Z,88.80
2019-05-26T19:35:31.093Z,87.90
2019-05-26T19:38:02.550Z,88.80
2019-05-26T19:40:34.196Z,87.60
2019-05-26T19:43:05.553Z,87.30
2019-05-26T19:45:36.736Z,89.40
2019-05-26T19:48:08.297Z,89.30
2019-05-26T19:50:40.014Z,90.00
2019-05-26T19:53:11.362Z,89.60
2019-05-26T19:55:42.493Z,89.30
2019-05-26T19:58:13.529Z,88.80
2019-05-26T20:00:45.170Z,88.30
2019-05-26T20:04:04.211Z,87.60
2019-05-26T20:06:35.709Z,89.10
2019-05-26T20:09:08.779Z,90.20
2019-05-26T20:11:40.465Z,90.30
2019-05-26T20:14:12.339Z,89.40
2019-05-26T20:16:43.988Z,89.20
2019-05-26T20:19:15.752Z,90.10
2019-05-26T20:21:47.612Z,90.40
2019-05-26T20:24:19.362Z,90.40
2019-05-26T20:26:50.575Z,90.40
2019-05-26T20:29:21.974Z,90.10
2019-05-26T20:31:53.724Z,90.10
2019-05-26T20:34:24.640Z,90.20
2019-05-26T20:36:56.223Z,90.00
2019-05-26T20:39:28.081Z,90.30
2019-05-26T20:41:59.288Z,90.20
2019-05-26T20:44:30.137Z,90.20
2019-05-26T20:47:01.280Z,90.10
2019-05-26T20:49:45.070Z,89.80
2019-05-26T20:52:05.954Z,90.30
2019-05-26T20:54:37.520Z,90.40
2019-05-26T20:57:09.079Z,90.60
2019-05-26T20:59:40.443Z,90.40
2019-05-26T21:02:11.648Z,90.20
2019-05-26T21:04:43.521Z,89.50
2019-05-26T21:07:15.237Z,89.30
2019-05-26T21:09:46.945Z,89.10
2019-05-26T21:12:18.804Z,89.50
2019-05-26T21:14:50.511Z,88.60
2019-05-26T21:17:22.325Z,88.80
2019-05-26T21:19:53.985Z,89.40
2019-05-26T21:22:24.823Z,90.20
2019-05-26T21:24:55.964Z,89.80
2019-05-26T21:27:27.412Z,89.40
2019-05-26T21:29:59.273Z,90.90
2019-05-26T21:32:31.507Z,91.30
2019-05-26T21:35:03.316Z,90.90
2019-05-26T21:37:35.099Z,90.40
2019-05-26T21:40:08.098Z,90.10
2019-05-26T21:42:39.830Z,90.50
2019-05-26T21:45:12.188Z,90.20
2019-05-26T21:47:44.058Z,89.70
2019-05-26T21:50:15.278Z,89.20
2019-05-26T21:52:46.854Z,89.50
2019-05-26T21:55:18.298Z,90.70
2019-05-26T21:57:49.647Z,90.80
2019-05-26T22:00:22.845Z,90.10
2019-05-26T22:02:54.514Z,90.00
2019-05-26T22:05:26.576Z,90.50
2019-05-26T22:07:57.790Z,90.10
2019-05-26T22:10:29.014Z,89.90
2019-05-26T22:13:00.628Z,89.40
2019-05-26T22:15:32.381Z,89.30
2019-05-26T22:18:04.238Z,89.50
2019-05-26T22:20:35.994Z,89.40
2019-05-26T22:23:07.203Z,89.70
2019-05-26T22:25:38.593Z,91.00
2019-05-26T22:28:10.252Z,90.40
2019-05-26T22:30:41.148Z,90.30
2019-05-26T22:33:12.385Z,90.40
2019-05-26T22:35:43.990Z,90.50
2019-05-26T22:38:15.850Z,90.90
2019-05-26T22:40:47.573Z,91.60
2019-05-26T22:43:19.371Z,91.60
2019-05-26T22:45:50.841Z,91.20
2019-05-26T22:48:21.993Z,91.80
2019-05-26T22:50:53.788Z,92.10
2019-05-26T22:53:24.992Z,92.00
2019-05-26T22:55:56.531Z,91.90
2019-05-26T22:58:27.899Z,91.40
2019-05-26T23:00:58.947Z,91.00
2019-05-26T23:03:30.854Z,90.60
2019-05-26T23:06:02.367Z,90.30
2019-05-26T23:08:34.104Z,90.20
2019-05-26T23:11:06.162Z,90.50
2019-05-26T23:13:38.018Z,88.90
2019-05-26T23:16:09.455Z,88.80
2019-05-26T23:18:41.141Z,88.80
2019-05-26T23:21:12.477Z,89.30
2019-05-26T23:23:44.145Z,87.80
2019-05-26T23:26:15.855Z,87.60
2019-05-26T23:28:47.652Z,87.30
2019-05-26T23:31:19.114Z,87.20
2019-05-26T23:33:50.458Z,88.40
2019-05-26T23:36:21.833Z,88.70
2019-05-26T23:38:52.880Z,88.80
2019-05-26T23:41:24.513Z,89.00
2019-05-26T23:43:55.876Z,88.70
2019-05-26T23:46:27.404Z,88.60
2019-05-26T23:48:59.009Z,88.30
2019-05-26T23:51:30.153Z,87.80
2019-05-26T23:54:01.287Z,87.60
2019-05-26T23:56:33.084Z,87.30
2019-05-26T23:59:04.229Z,87.30
